Terminal Aerodrome Forecast
Issued by NWS

Home | Current Version | Previous Version | Text Only | Print | Product List | Glossary On
Versions: 1 2 3 4 5 6 7 8 9 10 11 12 13 14 15 16 17 18 19 20 21 22 23 24 25 26 27
000
FTUS41 KBGM 251100
TAFITH
TAF
KITH 251126Z 2512/2612 24005KT P6SM OVC035
     FM251500 26012G22KT P6SM SCT035 BKN070
     FM252300 29010KT P6SM SCT025 OVC035
      TEMPO 2608/2612 OVC025=

USA.gov is the U.S. government's official web portal to all federal, state and local government web resources and services.